sensor_id;sensor_type;location;lat;lon;timestamp;temperature;humidity
67603;DHT22;54417;47.454;18.918;2022-11-20T00:04:44;1.72;88.34
67603;DHT22;54417;47.454;18.918;2022-11-20T00:10:09;1.44;89.60
67603;DHT22;54417;47.454;18.918;2022-11-20T00:15:33;1.41;89.81
67603;DHT22;54417;47.454;18.918;2022-11-20T00:21:01;1.34;90.16
67603;DHT22;54417;47.454;18.918;2022-11-20T00:26:27;1.33;89.46
67603;DHT22;54417;47.454;18.918;2022-11-20T00:31:51;1.43;89.80
67603;DHT22;54417;47.454;18.918;2022-11-20T00:37:15;1.57;89.84
67603;DHT22;54417;47.454;18.918;2022-11-20T00:42:40;1.62;90.06
67603;DHT22;54417;47.454;18.918;2022-11-20T00:48:03;1.69;89.87
67603;DHT22;54417;47.454;18.918;2022-11-20T00:53:27;1.52;89.89
67603;DHT22;54417;47.454;18.918;2022-11-20T00:58:52;1.59;89.80
67603;DHT22;54417;47.454;18.918;2022-11-20T01:04:16;1.40;86.92
67603;DHT22;54417;47.454;18.918;2022-11-20T01:09:40;1.36;88.53
67603;DHT22;54417;47.454;18.918;2022-11-20T01:15:06;1.13;89.32
67603;DHT22;54417;47.454;18.918;2022-11-20T01:20:30;0.97;89.28
67603;DHT22;54417;47.454;18.918;2022-11-20T01:25:58;0.90;88.95
67603;DHT22;54417;47.454;18.918;2022-11-20T01:31:26;0.86;88.34
67603;DHT22;54417;47.454;18.918;2022-11-20T01:36:51;0.90;88.56
67603;DHT22;54417;47.454;18.918;2022-11-20T01:42:15;0.95;87.92
67603;DHT22;54417;47.454;18.918;2022-11-20T01:48:12;0.96;88.04
67603;DHT22;54417;47.454;18.918;2022-11-20T01:53:36;0.96;87.98
67603;DHT22;54417;47.454;18.918;2022-11-20T01:59:02;0.99;88.00
67603;DHT22;54417;47.454;18.918;2022-11-20T02:04:29;1.07;88.33
67603;DHT22;54417;47.454;18.918;2022-11-20T02:09:52;1.20;88.32
67603;DHT22;54417;47.454;18.918;2022-11-20T02:15:20;1.36;88.95
67603;DHT22;54417;47.454;18.918;2022-11-20T02:20:55;1.40;89.11
67603;DHT22;54417;47.454;18.918;2022-11-20T02:26:24;1.36;88.84
67603;DHT22;54417;47.454;18.918;2022-11-20T02:31:48;1.37;88.72
67603;DHT22;54417;47.454;18.918;2022-11-20T02:37:12;1.50;89.18
67603;DHT22;54417;47.454;18.918;2022-11-20T02:42:37;1.50;89.07
67603;DHT22;54417;47.454;18.918;2022-11-20T02:48:01;1.50;88.89
67603;DHT22;54417;47.454;18.918;2022-11-20T02:53:25;1.50;89.03
67603;DHT22;54417;47.454;18.918;2022-11-20T02:58:50;1.50;89.00
67603;DHT22;54417;47.454;18.918;2022-11-20T03:04:14;1.34;89.43
67603;DHT22;54417;47.454;18.918;2022-11-20T03:09:37;1.31;89.95
67603;DHT22;54417;47.454;18.918;2022-11-20T03:15:03;1.27;89.78
67603;DHT22;54417;47.454;18.918;2022-11-20T03:20:27;1.31;89.78
67603;DHT22;54417;47.454;18.918;2022-11-20T03:25:50;1.36;89.80
67603;DHT22;54417;47.454;18.918;2022-11-20T03:31:17;1.46;89.91
67603;DHT22;54417;47.454;18.918;2022-11-20T03:36:42;1.33;89.75
67603;DHT22;54417;47.454;18.918;2022-11-20T03:42:06;1.34;89.98
67603;DHT22;54417;47.454;18.918;2022-11-20T03:47:51;1.43;89.98
67603;DHT22;54417;47.454;18.918;2022-11-20T03:53:15;1.37;89.99
67603;DHT22;54417;47.454;18.918;2022-11-20T03:58:40;1.40;89.94
67603;DHT22;54417;47.454;18.918;2022-11-20T04:04:05;1.47;89.84
67603;DHT22;54417;47.454;18.918;2022-11-20T04:09:29;1.40;89.54
67603;DHT22;54417;47.454;18.918;2022-11-20T04:14:53;1.51;89.56
67603;DHT22;54417;47.454;18.918;2022-11-20T04:20:18;1.69;88.96
67603;DHT22;54417;47.454;18.918;2022-11-20T04:25:42;1.71;88.03
67603;DHT22;54417;47.454;18.918;2022-11-20T04:31:06;1.64;87.85
67603;DHT22;54417;47.454;18.918;2022-11-20T04:36:32;1.68;87.71
67603;DHT22;54417;47.454;18.918;2022-11-20T04:41:56;1.82;88.06
67603;DHT22;54417;47.454;18.918;2022-11-20T04:47:34;1.98;89.18
67603;DHT22;54417;47.454;18.918;2022-11-20T04:52:59;1.92;89.26
67603;DHT22;54417;47.454;18.918;2022-11-20T04:58:23;1.88;89.23
67603;DHT22;54417;47.454;18.918;2022-11-20T05:03:46;1.85;89.18
67603;DHT22;54417;47.454;18.918;2022-11-20T05:09:12;1.83;89.64
67603;DHT22;54417;47.454;18.918;2022-11-20T05:14:35;1.83;89.51
67603;DHT22;54417;47.454;18.918;2022-11-20T05:19:59;1.79;89.86
67603;DHT22;54417;47.454;18.918;2022-11-20T05:25:24;1.95;89.87
67603;DHT22;54417;47.454;18.918;2022-11-20T05:30:49;2.01;89.80
67603;DHT22;54417;47.454;18.918;2022-11-20T05:36:13;2.10;89.90
67603;DHT22;54417;47.454;18.918;2022-11-20T05:41:39;1.94;89.42
67603;DHT22;54417;47.454;18.918;2022-11-20T05:47:02;1.88;89.12
67603;DHT22;54417;47.454;18.918;2022-11-20T05:52:28;1.92;89.25
67603;DHT22;54417;47.454;18.918;2022-11-20T05:57:53;1.89;89.39
67603;DHT22;54417;47.454;18.918;2022-11-20T06:03:17;1.82;89.45
67603;DHT22;54417;47.454;18.918;2022-11-20T06:08:41;1.78;89.12
67603;DHT22;54417;47.454;18.918;2022-11-20T06:14:06;1.72;89.37
67603;DHT22;54417;47.454;18.918;2022-11-20T06:19:30;1.74;89.13
67603;DHT22;54417;47.454;18.918;2022-11-20T06:24:54;1.75;89.45
67603;DHT22;54417;47.454;18.918;2022-11-20T06:30:19;1.86;88.85
67603;DHT22;54417;47.454;18.918;2022-11-20T06:35:42;1.99;88.71
67603;DHT22;54417;47.454;18.918;2022-11-20T06:41:07;2.07;88.35
67603;DHT22;54417;47.454;18.918;2022-11-20T06:46:34;2.12;88.55
67603;DHT22;54417;47.454;18.918;2022-11-20T06:51:58;2.17;88.58
67603;DHT22;54417;47.454;18.918;2022-11-20T06:57:22;2.22;88.17
67603;DHT22;54417;47.454;18.918;2022-11-20T07:02:48;2.29;88.51
67603;DHT22;54417;47.454;18.918;2022-11-20T07:08:12;2.36;88.55
67603;DHT22;54417;47.454;18.918;2022-11-20T07:13:35;2.47;89.14
67603;DHT22;54417;47.454;18.918;2022-11-20T07:19:01;2.55;88.99
67603;DHT22;54417;47.454;18.918;2022-11-20T07:24:24;2.64;89.72
67603;DHT22;54417;47.454;18.918;2022-11-20T07:29:48;2.71;90.37
67603;DHT22;54417;47.454;18.918;2022-11-20T07:35:13;2.65;90.38
67603;DHT22;54417;47.454;18.918;2022-11-20T07:40:37;2.73;90.72
67603;DHT22;54417;47.454;18.918;2022-11-20T07:46:01;2.95;90.39
67603;DHT22;54417;47.454;18.918;2022-11-20T07:51:27;3.25;89.74
67603;DHT22;54417;47.454;18.918;2022-11-20T07:56:51;3.44;89.09
67603;DHT22;54417;47.454;18.918;2022-11-20T08:02:15;3.67;88.21
67603;DHT22;54417;47.454;18.918;2022-11-20T08:07:42;4.06;86.47
67603;DHT22;54417;47.454;18.918;2022-11-20T08:13:06;3.99;87.56
67603;DHT22;54417;47.454;18.918;2022-11-20T08:18:47;4.02;87.88
67603;DHT22;54417;47.454;18.918;2022-11-20T08:24:12;3.99;88.43
67603;DHT22;54417;47.454;18.918;2022-11-20T08:29:36;4.16;88.48
67603;DHT22;54417;47.454;18.918;2022-11-20T08:35:00;4.22;88.06
67603;DHT22;54417;47.454;18.918;2022-11-20T08:40:25;4.49;88.15
67603;DHT22;54417;47.454;18.918;2022-11-20T08:45:49;4.67;87.09
67603;DHT22;54417;47.454;18.918;2022-11-20T08:51:13;4.87;87.55
67603;DHT22;54417;47.454;18.918;2022-11-20T08:56:38;4.98;87.05
67603;DHT22;54417;47.454;18.918;2022-11-20T09:02:02;5.04;87.32
67603;DHT22;54417;47.454;18.918;2022-11-20T09:07:26;4.87;86.97
67603;DHT22;54417;47.454;18.918;2022-11-20T09:12:51;4.63;86.98
67603;DHT22;54417;47.454;18.918;2022-11-20T09:18:14;4.60;86.86
67603;DHT22;54417;47.454;18.918;2022-11-20T09:23:39;4.57;86.98
67603;DHT22;54417;47.454;18.918;2022-11-20T09:29:04;4.60;86.80
67603;DHT22;54417;47.454;18.918;2022-11-20T09:34:28;4.48;86.20
67603;DHT22;54417;47.454;18.918;2022-11-20T09:39:51;4.38;86.96
67603;DHT22;54417;47.454;18.918;2022-11-20T09:45:35;4.40;87.19
67603;DHT22;54417;47.454;18.918;2022-11-20T09:51:06;4.67;86.57
67603;DHT22;54417;47.454;18.918;2022-11-20T09:56:37;4.94;87.13
67603;DHT22;54417;47.454;18.918;2022-11-20T10:02:16;5.05;85.96
67603;DHT22;54417;47.454;18.918;2022-11-20T10:07:47;5.15;85.55
67603;DHT22;54417;47.454;18.918;2022-11-20T10:13:20;5.36;83.45
67603;DHT22;54417;47.454;18.918;2022-11-20T10:19:01;5.48;80.21
67603;DHT22;54417;47.454;18.918;2022-11-20T10:24:50;5.42;80.00
67603;DHT22;54417;47.454;18.918;2022-11-20T10:30:17;5.58;80.27
67603;DHT22;54417;47.454;18.918;2022-11-20T10:35:44;5.70;80.97
67603;DHT22;54417;47.454;18.918;2022-11-20T10:41:16;5.86;80.54
67603;DHT22;54417;47.454;18.918;2022-11-20T10:46:59;5.94;79.77
67603;DHT22;54417;47.454;18.918;2022-11-20T10:52:33;5.93;79.66
67603;DHT22;54417;47.454;18.918;2022-11-20T10:58:04;5.97;79.66
67603;DHT22;54417;47.454;18.918;2022-11-20T11:03:31;5.81;79.92
67603;DHT22;54417;47.454;18.918;2022-11-20T11:08:59;5.79;80.90
67603;DHT22;54417;47.454;18.918;2022-11-20T11:14:25;5.74;80.10
67603;DHT22;54417;47.454;18.918;2022-11-20T11:20:05;5.77;81.04
67603;DHT22;54417;47.454;18.918;2022-11-20T11:25:32;5.80;80.79
67603;DHT22;54417;47.454;18.918;2022-11-20T11:30:57;5.90;81.55
67603;DHT22;54417;47.454;18.918;2022-11-20T11:36:22;5.86;81.18
67603;DHT22;54417;47.454;18.918;2022-11-20T11:41:48;5.81;81.84
67603;DHT22;54417;47.454;18.918;2022-11-20T11:47:22;5.81;81.83
67603;DHT22;54417;47.454;18.918;2022-11-20T11:52:54;5.69;82.18
67603;DHT22;54417;47.454;18.918;2022-11-20T11:58:33;5.73;83.00
67603;DHT22;54417;47.454;18.918;2022-11-20T12:04:03;5.77;83.03
67603;DHT22;54417;47.454;18.918;2022-11-20T12:09:34;5.73;82.59
67603;DHT22;54417;47.454;18.918;2022-11-20T12:15:00;5.59;82.69
67603;DHT22;54417;47.454;18.918;2022-11-20T12:20:28;5.62;82.98
67603;DHT22;54417;47.454;18.918;2022-11-20T12:25:55;5.73;83.33
67603;DHT22;54417;47.454;18.918;2022-11-20T12:31:43;5.71;82.42
67603;DHT22;54417;47.454;18.918;2022-11-20T12:37:22;5.69;83.18
67603;DHT22;54417;47.454;18.918;2022-11-20T12:42:55;5.73;83.05
67603;DHT22;54417;47.454;18.918;2022-11-20T12:48:52;5.73;82.80
67603;DHT22;54417;47.454;18.918;2022-11-20T12:54:38;5.81;82.26
67603;DHT22;54417;47.454;18.918;2022-11-20T13:00:11;5.87;82.33
67603;DHT22;54417;47.454;18.918;2022-11-20T13:05:43;6.00;82.36
67603;DHT22;54417;47.454;18.918;2022-11-20T13:11:15;6.04;81.88
67603;DHT22;54417;47.454;18.918;2022-11-20T13:16:46;6.04;81.56
67603;DHT22;54417;47.454;18.918;2022-11-20T13:22:24;6.08;82.60
67603;DHT22;54417;47.454;18.918;2022-11-20T13:27:48;5.98;82.94
67603;DHT22;54417;47.454;18.918;2022-11-20T13:33:23;5.86;83.03
67603;DHT22;54417;47.454;18.918;2022-11-20T13:38:51;5.74;83.69
67603;DHT22;54417;47.454;18.918;2022-11-20T13:44:29;5.70;84.08
67603;DHT22;54417;47.454;18.918;2022-11-20T13:49:55;5.71;83.60
67603;DHT22;54417;47.454;18.918;2022-11-20T13:55:35;5.66;83.72
67603;DHT22;54417;47.454;18.918;2022-11-20T14:01:08;5.56;84.09
67603;DHT22;54417;47.454;18.918;2022-11-20T14:06:34;5.48;84.52
67603;DHT22;54417;47.454;18.918;2022-11-20T14:12:04;5.40;84.69
67603;DHT22;54417;47.454;18.918;2022-11-20T14:17:37;5.40;85.54
67603;DHT22;54417;47.454;18.918;2022-11-20T14:23:01;5.32;85.72
67603;DHT22;54417;47.454;18.918;2022-11-20T14:28:30;5.34;85.98
67603;DHT22;54417;47.454;18.918;2022-11-20T14:33:54;5.22;86.45
67603;DHT22;54417;47.454;18.918;2022-11-20T14:39:20;5.02;87.09
67603;DHT22;54417;47.454;18.918;2022-11-20T14:44:47;4.83;87.70
67603;DHT22;54417;47.454;18.918;2022-11-20T14:50:15;4.63;88.09
67603;DHT22;54417;47.454;18.918;2022-11-20T14:55:40;4.48;88.50
67603;DHT22;54417;47.454;18.918;2022-11-20T15:01:07;4.23;89.16
67603;DHT22;54417;47.454;18.918;2022-11-20T15:06:31;4.03;89.40
67603;DHT22;54417;47.454;18.918;2022-11-20T15:11:56;3.91;89.79
67603;DHT22;54417;47.454;18.918;2022-11-20T15:17:21;3.71;90.00
67603;DHT22;54417;47.454;18.918;2022-11-20T15:22:45;3.69;90.08
67603;DHT22;54417;47.454;18.918;2022-11-20T15:28:16;3.61;89.99
67603;DHT22;54417;47.454;18.918;2022-11-20T15:33:42;3.50;90.04
67603;DHT22;54417;47.454;18.918;2022-11-20T15:39:06;3.40;90.19
67603;DHT22;54417;47.454;18.918;2022-11-20T15:44:30;3.34;90.33
67603;DHT22;54417;47.454;18.918;2022-11-20T15:49:55;3.25;90.51
67603;DHT22;54417;47.454;18.918;2022-11-20T15:55:19;3.20;90.57
67603;DHT22;54417;47.454;18.918;2022-11-20T16:00:43;3.19;90.71
67603;DHT22;54417;47.454;18.918;2022-11-20T16:06:09;3.13;90.87
67603;DHT22;54417;47.454;18.918;2022-11-20T16:11:33;3.01;91.14
67603;DHT22;54417;47.454;18.918;2022-11-20T16:16:58;3.06;91.19
67603;DHT22;54417;47.454;18.918;2022-11-20T16:22:25;2.96;91.57
67603;DHT22;54417;47.454;18.918;2022-11-20T16:27:48;2.85;91.62
67603;DHT22;54417;47.454;18.918;2022-11-20T16:33:13;2.83;91.70
67603;DHT22;54417;47.454;18.918;2022-11-20T16:38:39;2.81;91.72
67603;DHT22;54417;47.454;18.918;2022-11-20T16:44:07;2.73;91.60
67603;DHT22;54417;47.454;18.918;2022-11-20T16:49:31;2.64;91.71
67603;DHT22;54417;47.454;18.918;2022-11-20T16:54:56;2.46;91.52
67603;DHT22;54417;47.454;18.918;2022-11-20T17:00:20;2.26;91.42
67603;DHT22;54417;47.454;18.918;2022-11-20T17:05:44;1.98;91.79
67603;DHT22;54417;47.454;18.918;2022-11-20T17:11:11;1.74;92.23
67603;DHT22;54417;47.454;18.918;2022-11-20T17:16:36;1.54;92.75
67603;DHT22;54417;47.454;18.918;2022-11-20T17:22:00;1.37;92.82
67603;DHT22;54417;47.454;18.918;2022-11-20T17:27:26;1.34;93.32
67603;DHT22;54417;47.454;18.918;2022-11-20T17:32:57;1.28;93.27
67603;DHT22;54417;47.454;18.918;2022-11-20T17:38:21;1.16;92.96
67603;DHT22;54417;47.454;18.918;2022-11-20T17:43:46;1.13;93.82
67603;DHT22;54417;47.454;18.918;2022-11-20T17:49:10;1.28;93.98
67603;DHT22;54417;47.454;18.918;2022-11-20T17:54:34;1.23;93.66
67603;DHT22;54417;47.454;18.918;2022-11-20T17:59:59;1.07;93.37
67603;DHT22;54417;47.454;18.918;2022-11-20T18:05:23;1.03;93.40
67603;DHT22;54417;47.454;18.918;2022-11-20T18:10:46;1.03;94.00
67603;DHT22;54417;47.454;18.918;2022-11-20T18:16:12;1.04;93.94
67603;DHT22;54417;47.454;18.918;2022-11-20T18:21:36;1.10;94.25
67603;DHT22;54417;47.454;18.918;2022-11-20T18:27:00;0.97;93.96
67603;DHT22;54417;47.454;18.918;2022-11-20T18:32:25;0.96;94.01
67603;DHT22;54417;47.454;18.918;2022-11-20T18:37:49;0.72;93.23
67603;DHT22;54417;47.454;18.918;2022-11-20T18:43:13;0.57;93.20
67603;DHT22;54417;47.454;18.918;2022-11-20T18:48:56;0.40;93.12
67603;DHT22;54417;47.454;18.918;2022-11-20T18:54:19;0.25;93.81
67603;DHT22;54417;47.454;18.918;2022-11-20T18:59:44;0.24;94.29
67603;DHT22;54417;47.454;18.918;2022-11-20T19:05:09;0.30;94.73
67603;DHT22;54417;47.454;18.918;2022-11-20T19:10:33;0.15;93.97
67603;DHT22;54417;47.454;18.918;2022-11-20T19:16:01;0.03;93.75
67603;DHT22;54417;47.454;18.918;2022-11-20T19:21:26;0.00;93.82
67603;DHT22;54417;47.454;18.918;2022-11-20T19:26:50;-0.18;94.23
67603;DHT22;54417;47.454;18.918;2022-11-20T19:32:16;-0.13;94.81
67603;DHT22;54417;47.454;18.918;2022-11-20T19:37:41;-0.01;95.15
67603;DHT22;54417;47.454;18.918;2022-11-20T19:43:04;-0.04;94.98
67603;DHT22;54417;47.454;18.918;2022-11-20T19:48:29;0.10;95.22
67603;DHT22;54417;47.454;18.918;2022-11-20T19:53:55;0.00;94.81
67603;DHT22;54417;47.454;18.918;2022-11-20T19:59:20;-0.07;94.82
67603;DHT22;54417;47.454;18.918;2022-11-20T20:04:44;-0.01;94.82
67603;DHT22;54417;47.454;18.918;2022-11-20T20:10:10;0.01;94.90
67603;DHT22;54417;47.454;18.918;2022-11-20T20:15:38;0.03;94.91
67603;DHT22;54417;47.454;18.918;2022-11-20T20:21:03;0.14;94.71
67603;DHT22;54417;47.454;18.918;2022-11-20T20:26:30;0.06;94.50
67603;DHT22;54417;47.454;18.918;2022-11-20T20:31:54;0.17;94.64
67603;DHT22;54417;47.454;18.918;2022-11-20T20:37:17;0.07;94.32
67603;DHT22;54417;47.454;18.918;2022-11-20T20:42:43;-0.01;94.26
67603;DHT22;54417;47.454;18.918;2022-11-20T20:48:06;-0.04;94.14
67603;DHT22;54417;47.454;18.918;2022-11-20T20:53:30;-0.24;94.01
67603;DHT22;54417;47.454;18.918;2022-11-20T20:58:55;-0.42;93.94
67603;DHT22;54417;47.454;18.918;2022-11-20T21:04:19;-0.54;93.89
67603;DHT22;54417;47.454;18.918;2022-11-20T21:09:43;-0.55;94.35
67603;DHT22;54417;47.454;18.918;2022-11-20T21:15:09;-0.54;94.54
67603;DHT22;54417;47.454;18.918;2022-11-20T21:20:37;-0.61;94.65
67603;DHT22;54417;47.454;18.918;2022-11-20T21:26:20;-0.59;94.56
67603;DHT22;54417;47.454;18.918;2022-11-20T21:31:45;-0.55;94.23
67603;DHT22;54417;47.454;18.918;2022-11-20T21:37:09;-0.68;93.82
67603;DHT22;54417;47.454;18.918;2022-11-20T21:42:33;-0.73;93.81
67603;DHT22;54417;47.454;18.918;2022-11-20T21:47:58;-0.95;93.46
67603;DHT22;54417;47.454;18.918;2022-11-20T21:53:22;-1.03;94.01
67603;DHT22;54417;47.454;18.918;2022-11-20T21:58:46;-1.06;93.93
67603;DHT22;54417;47.454;18.918;2022-11-20T22:04:13;-1.18;93.76
67603;DHT22;54417;47.454;18.918;2022-11-20T22:09:37;-1.27;93.84
67603;DHT22;54417;47.454;18.918;2022-11-20T22:15:01;-1.21;94.15
67603;DHT22;54417;47.454;18.918;2022-11-20T22:20:26;-1.26;94.71
67603;DHT22;54417;47.454;18.918;2022-11-20T22:25:49;-1.31;94.49
67603;DHT22;54417;47.454;18.918;2022-11-20T22:31:13;-1.33;94.20
67603;DHT22;54417;47.454;18.918;2022-11-20T22:36:41;-1.37;94.02
67603;DHT22;54417;47.454;18.918;2022-11-20T22:42:06;-1.45;93.93
67603;DHT22;54417;47.454;18.918;2022-11-20T22:47:29;-1.52;93.88
67603;DHT22;54417;47.454;18.918;2022-11-20T22:52:54;-1.56;93.77
67603;DHT22;54417;47.454;18.918;2022-11-20T22:58:18;-1.71;93.73
67603;DHT22;54417;47.454;18.918;2022-11-20T23:03:43;-1.74;93.79
67603;DHT22;54417;47.454;18.918;2022-11-20T23:09:09;-1.78;94.14
67603;DHT22;54417;47.454;18.918;2022-11-20T23:14:34;-1.69;94.76
67603;DHT22;54417;47.454;18.918;2022-11-20T23:19:58;-1.69;94.52
67603;DHT22;54417;47.454;18.918;2022-11-20T23:25:25;-1.71;94.51
67603;DHT22;54417;47.454;18.918;2022-11-20T23:30:48;-1.71;94.41
67603;DHT22;54417;47.454;18.918;2022-11-20T23:36:12;-1.75;94.22
67603;DHT22;54417;47.454;18.918;2022-11-20T23:41:37;-1.85;93.90
67603;DHT22;54417;47.454;18.918;2022-11-20T23:47:01;-1.93;93.75
67603;DHT22;54417;47.454;18.918;2022-11-20T23:52:25;-1.93;94.59
67603;DHT22;54417;47.454;18.918;2022-11-20T23:57:50;-1.90;94.74
